Tampa, Florida
Traffic Map
Current Weather Conditions
Tampa, Florida
Scattered Clouds
Scattered Clouds
23°
Feels Like: 23°
Wind Chill: 23° Ceiling: Unl
Heat Index: 23° Visibility: 10mi
Dew Point: 22° Wind: 0mph
Humidity: 91% Direction: ° ()
Pressure: 30.04in Gusts: 0mph
Raw Report DataKTPA 290653Z 00000KT 10SM SCT210 23/22 A3004 RMK AO2 SLP173 T02330217
Traffic Incident Summary
Active as of:
Severity:
Category:
InformationThere was an issue retrieving the traffic information for this location. Please try a different location or try again shortly.
Advertisements
Track Severe Weather on mobile